sensor_id;sensor_type;location;lat;lon;timestamp;temperature;humidity
25871;DHT22;13689;48.590;7.752;2023-03-05T00:02:14;7.10;61.00
25871;DHT22;13689;48.590;7.752;2023-03-05T00:04:39;7.10;61.10
25871;DHT22;13689;48.590;7.752;2023-03-05T00:07:05;7.10;61.00
25871;DHT22;13689;48.590;7.752;2023-03-05T00:09:33;7.00;61.10
25871;DHT22;13689;48.590;7.752;2023-03-05T00:11:59;7.00;61.10
25871;DHT22;13689;48.590;7.752;2023-03-05T00:14:24;7.00;61.10
25871;DHT22;13689;48.590;7.752;2023-03-05T00:16:50;7.10;61.20
25871;DHT22;13689;48.590;7.752;2023-03-05T00:19:15;7.00;61.00
25871;DHT22;13689;48.590;7.752;2023-03-05T00:21:42;7.00;61.00
25871;DHT22;13689;48.590;7.752;2023-03-05T00:24:11;7.00;61.10
25871;DHT22;13689;48.590;7.752;2023-03-05T00:26:40;7.00;61.10
25871;DHT22;13689;48.590;7.752;2023-03-05T00:29:06;7.00;61.00
25871;DHT22;13689;48.590;7.752;2023-03-05T00:31:33;7.10;61.00
25871;DHT22;13689;48.590;7.752;2023-03-05T00:34:02;7.10;61.00
25871;DHT22;13689;48.590;7.752;2023-03-05T00:36:28;7.00;60.80
25871;DHT22;13689;48.590;7.752;2023-03-05T00:38:54;7.10;60.90
25871;DHT22;13689;48.590;7.752;2023-03-05T00:41:20;7.10;60.90
25871;DHT22;13689;48.590;7.752;2023-03-05T00:43:46;7.10;60.80
25871;DHT22;13689;48.590;7.752;2023-03-05T00:46:12;7.10;60.80
25871;DHT22;13689;48.590;7.752;2023-03-05T00:48:37;7.10;60.80
25871;DHT22;13689;48.590;7.752;2023-03-05T00:51:03;7.10;60.80
25871;DHT22;13689;48.590;7.752;2023-03-05T00:53:29;7.10;60.80
25871;DHT22;13689;48.590;7.752;2023-03-05T00:55:54;7.10;60.60
25871;DHT22;13689;48.590;7.752;2023-03-05T00:58:20;7.10;60.60
25871;DHT22;13689;48.590;7.752;2023-03-05T01:00:46;7.00;60.70
25871;DHT22;13689;48.590;7.752;2023-03-05T01:03:15;7.00;60.70
25871;DHT22;13689;48.590;7.752;2023-03-05T01:05:42;7.00;60.80
25871;DHT22;13689;48.590;7.752;2023-03-05T01:08:07;7.00;61.00
25871;DHT22;13689;48.590;7.752;2023-03-05T01:10:33;7.00;60.80
25871;DHT22;13689;48.590;7.752;2023-03-05T01:12:59;7.00;60.90
25871;DHT22;13689;48.590;7.752;2023-03-05T01:15:25;7.00;60.90
25871;DHT22;13689;48.590;7.752;2023-03-05T01:17:51;7.00;60.80
25871;DHT22;13689;48.590;7.752;2023-03-05T01:20:18;7.00;60.90
25871;DHT22;13689;48.590;7.752;2023-03-05T01:22:44;7.00;60.90
25871;DHT22;13689;48.590;7.752;2023-03-05T01:25:11;7.00;60.90
25871;DHT22;13689;48.590;7.752;2023-03-05T01:27:37;7.00;61.10
25871;DHT22;13689;48.590;7.752;2023-03-05T01:30:04;7.00;61.20
25871;DHT22;13689;48.590;7.752;2023-03-05T01:32:29;7.00;61.20
25871;DHT22;13689;48.590;7.752;2023-03-05T01:34:55;7.00;61.20
25871;DHT22;13689;48.590;7.752;2023-03-05T01:37:20;7.00;61.10
25871;DHT22;13689;48.590;7.752;2023-03-05T01:39:46;7.00;61.30
25871;DHT22;13689;48.590;7.752;2023-03-05T01:42:12;7.00;61.40
25871;DHT22;13689;48.590;7.752;2023-03-05T01:44:37;7.00;61.40
25871;DHT22;13689;48.590;7.752;2023-03-05T01:47:03;7.00;61.50
25871;DHT22;13689;48.590;7.752;2023-03-05T01:49:39;7.00;61.60
25871;DHT22;13689;48.590;7.752;2023-03-05T01:54:40;7.00;61.70
25871;DHT22;13689;48.590;7.752;2023-03-05T01:57:11;7.00;61.60
25871;DHT22;13689;48.590;7.752;2023-03-05T01:59:40;6.90;61.90
25871;DHT22;13689;48.590;7.752;2023-03-05T02:02:06;6.80;62.10
25871;DHT22;13689;48.590;7.752;2023-03-05T02:05:11;6.80;62.20
25871;DHT22;13689;48.590;7.752;2023-03-05T02:07:36;6.70;62.40
25871;DHT22;13689;48.590;7.752;2023-03-05T02:10:19;6.80;62.60
25871;DHT22;13689;48.590;7.752;2023-03-05T02:12:46;6.80;62.50
25871;DHT22;13689;48.590;7.752;2023-03-05T02:15:13;6.90;62.40
25871;DHT22;13689;48.590;7.752;2023-03-05T02:17:39;6.80;62.30
25871;DHT22;13689;48.590;7.752;2023-03-05T02:20:13;6.80;62.50
25871;DHT22;13689;48.590;7.752;2023-03-05T02:22:39;6.80;62.60
25871;DHT22;13689;48.590;7.752;2023-03-05T02:25:24;6.80;62.60
25871;DHT22;13689;48.590;7.752;2023-03-05T02:30:25;6.70;62.90
25871;DHT22;13689;48.590;7.752;2023-03-05T02:32:50;6.70;63.20
25871;DHT22;13689;48.590;7.752;2023-03-05T02:35:16;6.70;63.10
25871;DHT22;13689;48.590;7.752;2023-03-05T02:37:42;6.70;63.10
25871;DHT22;13689;48.590;7.752;2023-03-05T02:40:09;6.70;63.00
25871;DHT22;13689;48.590;7.752;2023-03-05T02:42:35;6.70;63.00
25871;DHT22;13689;48.590;7.752;2023-03-05T02:45:01;6.70;63.10
25871;DHT22;13689;48.590;7.752;2023-03-05T02:47:27;6.60;63.30
25871;DHT22;13689;48.590;7.752;2023-03-05T02:49:53;6.60;63.40
25871;DHT22;13689;48.590;7.752;2023-03-05T02:52:20;6.60;63.50
25871;DHT22;13689;48.590;7.752;2023-03-05T02:54:48;6.70;63.60
25871;DHT22;13689;48.590;7.752;2023-03-05T02:57:14;6.70;63.50
25871;DHT22;13689;48.590;7.752;2023-03-05T02:59:40;6.70;63.30
25871;DHT22;13689;48.590;7.752;2023-03-05T03:02:05;6.70;63.30
25871;DHT22;13689;48.590;7.752;2023-03-05T03:04:31;6.80;63.10
25871;DHT22;13689;48.590;7.752;2023-03-05T03:06:56;6.70;63.00
25871;DHT22;13689;48.590;7.752;2023-03-05T03:09:22;6.60;63.10
25871;DHT22;13689;48.590;7.752;2023-03-05T03:11:48;6.60;63.20
25871;DHT22;13689;48.590;7.752;2023-03-05T03:14:14;6.50;63.40
25871;DHT22;13689;48.590;7.752;2023-03-05T03:16:39;6.50;63.60
25871;DHT22;13689;48.590;7.752;2023-03-05T03:19:05;6.60;63.50
25871;DHT22;13689;48.590;7.752;2023-03-05T03:21:30;6.50;63.60
25871;DHT22;13689;48.590;7.752;2023-03-05T03:23:56;6.50;63.60
25871;DHT22;13689;48.590;7.752;2023-03-05T03:26:22;6.50;63.60
25871;DHT22;13689;48.590;7.752;2023-03-05T03:28:48;6.60;63.60
25871;DHT22;13689;48.590;7.752;2023-03-05T03:31:13;6.60;63.30
25871;DHT22;13689;48.590;7.752;2023-03-05T03:33:39;6.60;63.30
25871;DHT22;13689;48.590;7.752;2023-03-05T03:36:05;6.50;63.30
25871;DHT22;13689;48.590;7.752;2023-03-05T03:38:31;6.50;63.50
25871;DHT22;13689;48.590;7.752;2023-03-05T03:40:56;6.40;63.50
25871;DHT22;13689;48.590;7.752;2023-03-05T03:43:22;6.40;63.50
25871;DHT22;13689;48.590;7.752;2023-03-05T03:45:47;6.50;63.70
25871;DHT22;13689;48.590;7.752;2023-03-05T03:48:13;6.50;63.60
25871;DHT22;13689;48.590;7.752;2023-03-05T03:50:40;6.50;63.50
25871;DHT22;13689;48.590;7.752;2023-03-05T03:53:07;6.60;63.40
25871;DHT22;13689;48.590;7.752;2023-03-05T03:55:33;6.60;63.30
25871;DHT22;13689;48.590;7.752;2023-03-05T03:57:58;6.60;63.20
25871;DHT22;13689;48.590;7.752;2023-03-05T04:00:24;6.60;63.10
25871;DHT22;13689;48.590;7.752;2023-03-05T04:02:50;6.60;63.20
25871;DHT22;13689;48.590;7.752;2023-03-05T04:05:15;6.60;63.20
25871;DHT22;13689;48.590;7.752;2023-03-05T04:07:41;6.60;63.10
25871;DHT22;13689;48.590;7.752;2023-03-05T04:10:07;6.60;63.20
25871;DHT22;13689;48.590;7.752;2023-03-05T04:12:33;6.60;63.20
25871;DHT22;13689;48.590;7.752;2023-03-05T04:14:59;6.50;63.10
25871;DHT22;13689;48.590;7.752;2023-03-05T04:17:24;6.50;63.30
25871;DHT22;13689;48.590;7.752;2023-03-05T04:19:50;6.50;63.40
25871;DHT22;13689;48.590;7.752;2023-03-05T04:22:16;6.50;63.40
25871;DHT22;13689;48.590;7.752;2023-03-05T04:24:42;6.50;63.60
25871;DHT22;13689;48.590;7.752;2023-03-05T04:27:08;6.50;63.60
25871;DHT22;13689;48.590;7.752;2023-03-05T04:29:34;6.50;63.40
25871;DHT22;13689;48.590;7.752;2023-03-05T04:32:00;6.50;63.40
25871;DHT22;13689;48.590;7.752;2023-03-05T04:34:26;6.50;63.40
25871;DHT22;13689;48.590;7.752;2023-03-05T04:36:52;6.50;63.60
25871;DHT22;13689;48.590;7.752;2023-03-05T04:39:17;6.50;63.50
25871;DHT22;13689;48.590;7.752;2023-03-05T04:41:46;6.50;63.60
25871;DHT22;13689;48.590;7.752;2023-03-05T04:44:11;6.50;63.60
25871;DHT22;13689;48.590;7.752;2023-03-05T04:46:37;6.40;63.50
25871;DHT22;13689;48.590;7.752;2023-03-05T04:49:03;6.40;63.50
25871;DHT22;13689;48.590;7.752;2023-03-05T04:51:28;6.40;63.70
25871;DHT22;13689;48.590;7.752;2023-03-05T04:53:54;6.40;63.90
25871;DHT22;13689;48.590;7.752;2023-03-05T04:56:19;6.40;63.80
25871;DHT22;13689;48.590;7.752;2023-03-05T04:58:45;6.40;63.80
25871;DHT22;13689;48.590;7.752;2023-03-05T05:01:11;6.40;63.80
25871;DHT22;13689;48.590;7.752;2023-03-05T05:03:36;6.50;63.80
25871;DHT22;13689;48.590;7.752;2023-03-05T05:06:02;6.40;64.40
25871;DHT22;13689;48.590;7.752;2023-03-05T05:08:28;6.40;63.70
25871;DHT22;13689;48.590;7.752;2023-03-05T05:11:05;6.40;63.90
25871;DHT22;13689;48.590;7.752;2023-03-05T05:13:31;6.40;63.90
25871;DHT22;13689;48.590;7.752;2023-03-05T05:15:57;6.40;63.90
25871;DHT22;13689;48.590;7.752;2023-03-05T05:18:23;6.40;63.90
25871;DHT22;13689;48.590;7.752;2023-03-05T05:20:49;6.50;64.00
25871;DHT22;13689;48.590;7.752;2023-03-05T05:23:15;6.50;64.00
25871;DHT22;13689;48.590;7.752;2023-03-05T05:25:41;6.50;64.00
25871;DHT22;13689;48.590;7.752;2023-03-05T05:28:08;6.50;64.00
25871;DHT22;13689;48.590;7.752;2023-03-05T05:30:34;6.50;63.90
25871;DHT22;13689;48.590;7.752;2023-03-05T05:33:00;6.50;63.90
25871;DHT22;13689;48.590;7.752;2023-03-05T05:35:26;6.50;64.00
25871;DHT22;13689;48.590;7.752;2023-03-05T05:37:51;6.50;64.10
25871;DHT22;13689;48.590;7.752;2023-03-05T05:40:17;6.50;64.30
25871;DHT22;13689;48.590;7.752;2023-03-05T05:42:43;6.50;64.30
25871;DHT22;13689;48.590;7.752;2023-03-05T05:45:10;6.50;64.30
25871;DHT22;13689;48.590;7.752;2023-03-05T05:47:35;6.50;64.30
25871;DHT22;13689;48.590;7.752;2023-03-05T05:50:01;6.50;64.30
25871;DHT22;13689;48.590;7.752;2023-03-05T05:52:27;6.50;64.30
25871;DHT22;13689;48.590;7.752;2023-03-05T05:54:53;6.50;64.30
25871;DHT22;13689;48.590;7.752;2023-03-05T05:57:18;6.50;64.30
25871;DHT22;13689;48.590;7.752;2023-03-05T05:59:44;6.50;64.30
25871;DHT22;13689;48.590;7.752;2023-03-05T06:02:10;6.50;64.40
25871;DHT22;13689;48.590;7.752;2023-03-05T06:04:36;6.50;64.40
25871;DHT22;13689;48.590;7.752;2023-03-05T06:07:02;6.50;64.50
25871;DHT22;13689;48.590;7.752;2023-03-05T06:09:28;6.50;64.40
25871;DHT22;13689;48.590;7.752;2023-03-05T06:11:53;6.40;64.50
25871;DHT22;13689;48.590;7.752;2023-03-05T06:14:19;6.40;64.90
25871;DHT22;13689;48.590;7.752;2023-03-05T06:16:45;6.40;64.90
25871;DHT22;13689;48.590;7.752;2023-03-05T06:19:12;6.30;64.80
25871;DHT22;13689;48.590;7.752;2023-03-05T06:21:38;6.30;64.90
25871;DHT22;13689;48.590;7.752;2023-03-05T06:24:04;6.30;65.10
25871;DHT22;13689;48.590;7.752;2023-03-05T06:26:30;6.30;65.00
25871;DHT22;13689;48.590;7.752;2023-03-05T06:28:56;6.30;64.70
25871;DHT22;13689;48.590;7.752;2023-03-05T06:31:25;6.20;64.90
25871;DHT22;13689;48.590;7.752;2023-03-05T06:33:55;6.10;65.00
25871;DHT22;13689;48.590;7.752;2023-03-05T06:36:22;6.10;65.30
25871;DHT22;13689;48.590;7.752;2023-03-05T06:38:49;6.20;65.50
25871;DHT22;13689;48.590;7.752;2023-03-05T06:41:19;6.20;65.40
25871;DHT22;13689;48.590;7.752;2023-03-05T06:43:46;6.20;65.20
25871;DHT22;13689;48.590;7.752;2023-03-05T06:46:21;6.20;65.20
25871;DHT22;13689;48.590;7.752;2023-03-05T06:48:47;6.20;65.20
25871;DHT22;13689;48.590;7.752;2023-03-05T06:51:17;6.10;65.30
25871;DHT22;13689;48.590;7.752;2023-03-05T06:53:44;6.10;65.50
25871;DHT22;13689;48.590;7.752;2023-03-05T06:56:11;6.10;65.70
25871;DHT22;13689;48.590;7.752;2023-03-05T06:58:39;6.10;65.80
25871;DHT22;13689;48.590;7.752;2023-03-05T07:01:05;6.20;65.70
25871;DHT22;13689;48.590;7.752;2023-03-05T07:03:32;6.20;65.50
25871;DHT22;13689;48.590;7.752;2023-03-05T07:05:58;6.20;65.70
25871;DHT22;13689;48.590;7.752;2023-03-05T07:08:23;6.30;65.60
25871;DHT22;13689;48.590;7.752;2023-03-05T07:10:49;6.20;65.40
25871;DHT22;13689;48.590;7.752;2023-03-05T07:13:14;6.20;65.60
25871;DHT22;13689;48.590;7.752;2023-03-05T07:15:42;6.20;65.70
25871;DHT22;13689;48.590;7.752;2023-03-05T07:18:07;6.20;65.80
25871;DHT22;13689;48.590;7.752;2023-03-05T07:20:36;6.20;65.60
25871;DHT22;13689;48.590;7.752;2023-03-05T07:23:02;6.30;65.70
25871;DHT22;13689;48.590;7.752;2023-03-05T07:25:28;6.30;65.60
25871;DHT22;13689;48.590;7.752;2023-03-05T07:27:54;6.30;65.60
25871;DHT22;13689;48.590;7.752;2023-03-05T07:30:19;6.30;65.50
25871;DHT22;13689;48.590;7.752;2023-03-05T07:32:45;6.30;65.60
25871;DHT22;13689;48.590;7.752;2023-03-05T07:35:11;6.20;65.50
25871;DHT22;13689;48.590;7.752;2023-03-05T07:37:37;6.20;65.70
25871;DHT22;13689;48.590;7.752;2023-03-05T07:40:03;6.20;65.60
25871;DHT22;13689;48.590;7.752;2023-03-05T07:42:29;6.30;65.70
25871;DHT22;13689;48.590;7.752;2023-03-05T07:44:55;6.30;65.70
25871;DHT22;13689;48.590;7.752;2023-03-05T07:47:21;6.30;65.60
25871;DHT22;13689;48.590;7.752;2023-03-05T07:49:48;6.40;65.50
25871;DHT22;13689;48.590;7.752;2023-03-05T07:52:14;6.30;65.30
25871;DHT22;13689;48.590;7.752;2023-03-05T07:54:39;6.30;65.40
25871;DHT22;13689;48.590;7.752;2023-03-05T07:57:07;6.20;65.60
25871;DHT22;13689;48.590;7.752;2023-03-05T07:59:33;6.30;65.70
25871;DHT22;13689;48.590;7.752;2023-03-05T08:01:59;6.30;65.60
25871;DHT22;13689;48.590;7.752;2023-03-05T08:04:25;6.30;65.50
25871;DHT22;13689;48.590;7.752;2023-03-05T08:06:51;6.30;65.60
25871;DHT22;13689;48.590;7.752;2023-03-05T08:09:17;6.30;65.60
25871;DHT22;13689;48.590;7.752;2023-03-05T08:11:43;6.40;65.50
25871;DHT22;13689;48.590;7.752;2023-03-05T08:14:09;6.30;65.60
25871;DHT22;13689;48.590;7.752;2023-03-05T08:16:34;6.40;65.80
25871;DHT22;13689;48.590;7.752;2023-03-05T08:19:00;6.50;65.70
25871;DHT22;13689;48.590;7.752;2023-03-05T08:21:32;6.50;65.50
25871;DHT22;13689;48.590;7.752;2023-03-05T08:23:58;6.50;65.50
25871;DHT22;13689;48.590;7.752;2023-03-05T08:26:26;6.40;65.50
25871;DHT22;13689;48.590;7.752;2023-03-05T08:28:52;6.40;65.80
25871;DHT22;13689;48.590;7.752;2023-03-05T08:31:20;6.50;65.80
25871;DHT22;13689;48.590;7.752;2023-03-05T08:33:50;6.70;65.70
25871;DHT22;13689;48.590;7.752;2023-03-05T08:36:17;6.80;65.50
25871;DHT22;13689;48.590;7.752;2023-03-05T08:38:42;6.80;65.30
25871;DHT22;13689;48.590;7.752;2023-03-05T08:41:09;6.90;65.10
25871;DHT22;13689;48.590;7.752;2023-03-05T08:43:35;6.90;65.00
25871;DHT22;13689;48.590;7.752;2023-03-05T08:46:02;6.90;65.00
25871;DHT22;13689;48.590;7.752;2023-03-05T08:48:28;6.90;65.00
25871;DHT22;13689;48.590;7.752;2023-03-05T08:50:54;7.00;65.10
25871;DHT22;13689;48.590;7.752;2023-03-05T08:53:21;7.10;65.00
25871;DHT22;13689;48.590;7.752;2023-03-05T08:55:54;7.10;64.70
25871;DHT22;13689;48.590;7.752;2023-03-05T08:58:20;7.20;64.80
25871;DHT22;13689;48.590;7.752;2023-03-05T09:00:46;7.20;65.50
25871;DHT22;13689;48.590;7.752;2023-03-05T09:03:11;7.40;64.70
25871;DHT22;13689;48.590;7.752;2023-03-05T09:05:37;7.40;64.30
25871;DHT22;13689;48.590;7.752;2023-03-05T09:08:03;7.30;64.00
25871;DHT22;13689;48.590;7.752;2023-03-05T09:10:28;7.20;63.80
25871;DHT22;13689;48.590;7.752;2023-03-05T09:12:54;7.20;64.10
25871;DHT22;13689;48.590;7.752;2023-03-05T09:15:20;7.30;64.20
25871;DHT22;13689;48.590;7.752;2023-03-05T09:17:45;7.30;63.90
25871;DHT22;13689;48.590;7.752;2023-03-05T09:20:12;7.30;63.90
25871;DHT22;13689;48.590;7.752;2023-03-05T09:22:41;7.30;63.80
25871;DHT22;13689;48.590;7.752;2023-03-05T09:25:09;7.30;63.80
25871;DHT22;13689;48.590;7.752;2023-03-05T09:27:35;7.30;63.60
25871;DHT22;13689;48.590;7.752;2023-03-05T09:30:02;7.40;63.80
25871;DHT22;13689;48.590;7.752;2023-03-05T09:32:29;7.40;63.80
25871;DHT22;13689;48.590;7.752;2023-03-05T09:34:55;7.50;63.50
25871;DHT22;13689;48.590;7.752;2023-03-05T09:37:21;7.50;63.30
25871;DHT22;13689;48.590;7.752;2023-03-05T09:39:46;7.50;63.30
25871;DHT22;13689;48.590;7.752;2023-03-05T09:45:24;7.50;63.20
25871;DHT22;13689;48.590;7.752;2023-03-05T09:53:15;7.60;62.80
25871;DHT22;13689;48.590;7.752;2023-03-05T09:55:43;7.50;62.80
25871;DHT22;13689;48.590;7.752;2023-03-05T09:58:16;7.60;63.20
25871;DHT22;13689;48.590;7.752;2023-03-05T10:00:52;7.60;63.20
25871;DHT22;13689;48.590;7.752;2023-03-05T10:06:39;7.80;62.80
25871;DHT22;13689;48.590;7.752;2023-03-05T10:14:01;7.90;62.60
25871;DHT22;13689;48.590;7.752;2023-03-05T10:18:56;8.00;62.50
25871;DHT22;13689;48.590;7.752;2023-03-05T10:21:41;8.10;62.50
25871;DHT22;13689;48.590;7.752;2023-03-05T10:27:25;8.20;62.20
25871;DHT22;13689;48.590;7.752;2023-03-05T10:30:11;8.20;62.10
25871;DHT22;13689;48.590;7.752;2023-03-05T10:40:57;8.30;62.00
25871;DHT22;13689;48.590;7.752;2023-03-05T10:46:16;8.30;61.90
25871;DHT22;13689;48.590;7.752;2023-03-05T10:48:49;8.30;61.90
25871;DHT22;13689;48.590;7.752;2023-03-05T10:53:59;8.40;61.90
25871;DHT22;13689;48.590;7.752;2023-03-05T10:56:27;8.30;61.90
25871;DHT22;13689;48.590;7.752;2023-03-05T10:58:54;8.30;61.80
25871;DHT22;13689;48.590;7.752;2023-03-05T11:06:43;8.20;62.10
25871;DHT22;13689;48.590;7.752;2023-03-05T11:09:29;8.20;62.00
25871;DHT22;13689;48.590;7.752;2023-03-05T11:12:16;8.20;62.00
25871;DHT22;13689;48.590;7.752;2023-03-05T11:17:37;8.30;62.00
25871;DHT22;13689;48.590;7.752;2023-03-05T11:23:17;8.40;62.00
25871;DHT22;13689;48.590;7.752;2023-03-05T11:33:54;8.50;61.90
25871;DHT22;13689;48.590;7.752;2023-03-05T11:36:23;8.40;62.00
25871;DHT22;13689;48.590;7.752;2023-03-05T11:38:59;8.50;62.10
25871;DHT22;13689;48.590;7.752;2023-03-05T11:42:04;8.30;62.00
25871;DHT22;13689;48.590;7.752;2023-03-05T11:44:47;8.40;62.40
25871;DHT22;13689;48.590;7.752;2023-03-05T11:49:51;8.60;62.20
25871;DHT22;13689;48.590;7.752;2023-03-05T11:52:30;8.60;62.10
25871;DHT22;13689;48.590;7.752;2023-03-05T11:55:06;8.70;62.00
25871;DHT22;13689;48.590;7.752;2023-03-05T11:57:45;8.80;61.80
25871;DHT22;13689;48.590;7.752;2023-03-05T12:00:17;8.80;61.70
25871;DHT22;13689;48.590;7.752;2023-03-05T12:02:46;8.80;61.60
25871;DHT22;13689;48.590;7.752;2023-03-05T12:05:14;8.80;61.40
25871;DHT22;13689;48.590;7.752;2023-03-05T12:07:45;8.80;61.80
25871;DHT22;13689;48.590;7.752;2023-03-05T12:10:20;8.80;61.80
25871;DHT22;13689;48.590;7.752;2023-03-05T12:21:06;8.90;61.40
25871;DHT22;13689;48.590;7.752;2023-03-05T12:23:53;8.80;61.20
25871;DHT22;13689;48.590;7.752;2023-03-05T12:58:24;8.90;61.10
25871;DHT22;13689;48.590;7.752;2023-03-05T13:03:34;8.90;60.80
25871;DHT22;13689;48.590;7.752;2023-03-05T13:06:01;8.90;60.80
25871;DHT22;13689;48.590;7.752;2023-03-05T13:08:30;8.90;60.80
25871;DHT22;13689;48.590;7.752;2023-03-05T13:13:30;9.00;60.80
25871;DHT22;13689;48.590;7.752;2023-03-05T13:15:57;9.00;60.80
25871;DHT22;13689;48.590;7.752;2023-03-05T13:18:28;9.00;60.60
25871;DHT22;13689;48.590;7.752;2023-03-05T13:21:02;9.00;60.60
25871;DHT22;13689;48.590;7.752;2023-03-05T13:23:30;9.00;60.60
25871;DHT22;13689;48.590;7.752;2023-03-05T13:28:29;9.00;61.40
25871;DHT22;13689;48.590;7.752;2023-03-05T13:31:01;8.90;60.60
25871;DHT22;13689;48.590;7.752;2023-03-05T13:33:51;8.90;60.60
25871;DHT22;13689;48.590;7.752;2023-03-05T13:36:19;8.90;60.70
25871;DHT22;13689;48.590;7.752;2023-03-05T13:38:46;8.90;60.60
25871;DHT22;13689;48.590;7.752;2023-03-05T13:41:19;8.90;60.60
25871;DHT22;13689;48.590;7.752;2023-03-05T13:44:02;8.90;60.60
25871;DHT22;13689;48.590;7.752;2023-03-05T13:46:36;9.00;60.80
25871;DHT22;13689;48.590;7.752;2023-03-05T13:49:30;9.00;60.60
25871;DHT22;13689;48.590;7.752;2023-03-05T13:51:57;9.00;60.60
25871;DHT22;13689;48.590;7.752;2023-03-05T13:54:25;9.00;60.60
25871;DHT22;13689;48.590;7.752;2023-03-05T13:56:59;9.00;60.60
25871;DHT22;13689;48.590;7.752;2023-03-05T13:59:28;9.00;60.60
25871;DHT22;13689;48.590;7.752;2023-03-05T14:02:00;9.10;60.60
25871;DHT22;13689;48.590;7.752;2023-03-05T14:04:28;9.00;60.60
25871;DHT22;13689;48.590;7.752;2023-03-05T14:12:05;8.90;60.60
25871;DHT22;13689;48.590;7.752;2023-03-05T14:14:36;8.90;60.60
25871;DHT22;13689;48.590;7.752;2023-03-05T14:19:47;8.80;60.50
25871;DHT22;13689;48.590;7.752;2023-03-05T14:22:32;8.70;60.50
25871;DHT22;13689;48.590;7.752;2023-03-05T14:24:58;8.70;60.50
25871;DHT22;13689;48.590;7.752;2023-03-05T14:27:24;8.70;60.50
25871;DHT22;13689;48.590;7.752;2023-03-05T14:29:50;8.70;60.40
25871;DHT22;13689;48.590;7.752;2023-03-05T14:32:24;8.70;60.10
25871;DHT22;13689;48.590;7.752;2023-03-05T14:34:56;8.70;59.90
25871;DHT22;13689;48.590;7.752;2023-03-05T14:37:38;8.80;59.80
25871;DHT22;13689;48.590;7.752;2023-03-05T14:40:19;8.80;59.60
25871;DHT22;13689;48.590;7.752;2023-03-05T14:42:53;8.80;59.40
25871;DHT22;13689;48.590;7.752;2023-03-05T14:45:33;8.70;59.30
25871;DHT22;13689;48.590;7.752;2023-03-05T14:48:01;8.70;59.20
25871;DHT22;13689;48.590;7.752;2023-03-05T14:50:29;8.70;59.00
25871;DHT22;13689;48.590;7.752;2023-03-05T14:53:02;8.70;59.00
25871;DHT22;13689;48.590;7.752;2023-03-05T14:55:31;8.70;58.80
25871;DHT22;13689;48.590;7.752;2023-03-05T14:58:01;8.70;58.70
25871;DHT22;13689;48.590;7.752;2023-03-05T15:00:29;8.70;58.50
25871;DHT22;13689;48.590;7.752;2023-03-05T15:02:55;8.70;58.50
25871;DHT22;13689;48.590;7.752;2023-03-05T15:05:22;8.70;58.40
25871;DHT22;13689;48.590;7.752;2023-03-05T15:07:48;8.70;58.30
25871;DHT22;13689;48.590;7.752;2023-03-05T15:10:16;8.70;58.20
25871;DHT22;13689;48.590;7.752;2023-03-05T15:12:42;8.70;58.20
25871;DHT22;13689;48.590;7.752;2023-03-05T15:15:12;8.60;58.10
25871;DHT22;13689;48.590;7.752;2023-03-05T15:17:40;8.60;58.00
25871;DHT22;13689;48.590;7.752;2023-03-05T15:20:15;8.60;58.00
25871;DHT22;13689;48.590;7.752;2023-03-05T15:22:41;8.60;58.00
25871;DHT22;13689;48.590;7.752;2023-03-05T15:25:17;8.60;57.90
25871;DHT22;13689;48.590;7.752;2023-03-05T15:27:44;8.60;57.90
25871;DHT22;13689;48.590;7.752;2023-03-05T15:30:34;8.60;57.90
25871;DHT22;13689;48.590;7.752;2023-03-05T15:33:09;8.60;57.90
25871;DHT22;13689;48.590;7.752;2023-03-05T15:35:35;8.60;57.90
25871;DHT22;13689;48.590;7.752;2023-03-05T15:38:01;8.60;58.20
25871;DHT22;13689;48.590;7.752;2023-03-05T15:40:27;8.50;57.90
25871;DHT22;13689;48.590;7.752;2023-03-05T15:42:56;8.50;58.00
25871;DHT22;13689;48.590;7.752;2023-03-05T15:45:26;8.50;57.90
25871;DHT22;13689;48.590;7.752;2023-03-05T15:47:52;8.50;57.90
25871;DHT22;13689;48.590;7.752;2023-03-05T15:50:20;8.50;58.00
25871;DHT22;13689;48.590;7.752;2023-03-05T15:52:46;8.50;57.90
25871;DHT22;13689;48.590;7.752;2023-03-05T15:55:13;8.50;57.90
25871;DHT22;13689;48.590;7.752;2023-03-05T15:57:44;8.50;57.90
25871;DHT22;13689;48.590;7.752;2023-03-05T16:00:11;8.50;57.90
25871;DHT22;13689;48.590;7.752;2023-03-05T16:02:37;8.50;57.90
25871;DHT22;13689;48.590;7.752;2023-03-05T16:05:03;8.50;57.80
25871;DHT22;13689;48.590;7.752;2023-03-05T16:07:33;8.50;57.80
25871;DHT22;13689;48.590;7.752;2023-03-05T16:10:03;8.50;57.70
25871;DHT22;13689;48.590;7.752;2023-03-05T16:12:36;8.50;57.60
25871;DHT22;13689;48.590;7.752;2023-03-05T16:15:12;8.50;57.60
25871;DHT22;13689;48.590;7.752;2023-03-05T16:17:40;8.50;57.50
25871;DHT22;13689;48.590;7.752;2023-03-05T16:20:08;8.40;57.40
25871;DHT22;13689;48.590;7.752;2023-03-05T16:22:34;8.40;57.40
25871;DHT22;13689;48.590;7.752;2023-03-05T16:25:00;8.40;57.40
25871;DHT22;13689;48.590;7.752;2023-03-05T16:27:26;8.40;57.40
25871;DHT22;13689;48.590;7.752;2023-03-05T16:29:52;8.40;57.50
25871;DHT22;13689;48.590;7.752;2023-03-05T16:32:19;8.40;57.50
25871;DHT22;13689;48.590;7.752;2023-03-05T16:34:45;8.40;57.50
25871;DHT22;13689;48.590;7.752;2023-03-05T16:37:18;8.40;57.50
25871;DHT22;13689;48.590;7.752;2023-03-05T16:39:44;8.40;57.50
25871;DHT22;13689;48.590;7.752;2023-03-05T16:42:12;8.40;57.60
25871;DHT22;13689;48.590;7.752;2023-03-05T16:44:41;8.30;57.60
25871;DHT22;13689;48.590;7.752;2023-03-05T16:47:07;8.30;57.60
25871;DHT22;13689;48.590;7.752;2023-03-05T16:49:33;8.30;57.60
25871;DHT22;13689;48.590;7.752;2023-03-05T16:52:03;8.30;57.60
25871;DHT22;13689;48.590;7.752;2023-03-05T16:54:30;8.30;57.60
25871;DHT22;13689;48.590;7.752;2023-03-05T16:57:01;8.30;57.70
25871;DHT22;13689;48.590;7.752;2023-03-05T16:59:28;8.30;57.70
25871;DHT22;13689;48.590;7.752;2023-03-05T17:01:53;8.30;57.70
25871;DHT22;13689;48.590;7.752;2023-03-05T17:04:19;8.30;58.40
25871;DHT22;13689;48.590;7.752;2023-03-05T17:06:46;8.20;57.80
25871;DHT22;13689;48.590;7.752;2023-03-05T17:09:14;8.20;57.80
25871;DHT22;13689;48.590;7.752;2023-03-05T17:11:40;8.20;57.90
25871;DHT22;13689;48.590;7.752;2023-03-05T17:14:05;8.20;57.90
25871;DHT22;13689;48.590;7.752;2023-03-05T17:16:31;8.20;57.90
25871;DHT22;13689;48.590;7.752;2023-03-05T17:18:57;8.20;57.90
25871;DHT22;13689;48.590;7.752;2023-03-05T17:21:23;8.20;57.90
25871;DHT22;13689;48.590;7.752;2023-03-05T17:23:49;8.20;57.90
25871;DHT22;13689;48.590;7.752;2023-03-05T17:26:18;8.20;57.90
25871;DHT22;13689;48.590;7.752;2023-03-05T17:28:46;8.20;57.90
25871;DHT22;13689;48.590;7.752;2023-03-05T17:31:12;8.20;58.00
25871;DHT22;13689;48.590;7.752;2023-03-05T17:33:39;8.20;57.90
25871;DHT22;13689;48.590;7.752;2023-03-05T17:36:15;8.10;57.90
25871;DHT22;13689;48.590;7.752;2023-03-05T17:38:41;8.20;58.00
25871;DHT22;13689;48.590;7.752;2023-03-05T17:41:06;8.10;58.00
25871;DHT22;13689;48.590;7.752;2023-03-05T17:43:32;8.20;58.10
25871;DHT22;13689;48.590;7.752;2023-03-05T17:46:01;8.10;58.00
25871;DHT22;13689;48.590;7.752;2023-03-05T17:48:27;8.10;58.60
25871;DHT22;13689;48.590;7.752;2023-03-05T17:50:53;8.10;58.10